createdAt,value
2023-02-23T00:01:58.229Z,93.63
2023-02-23T00:04:25.522Z,94.38
2023-02-23T00:06:53.500Z,93.92
2023-02-23T00:09:24.763Z,93.48
2023-02-23T00:11:57.474Z,93.18
2023-02-23T00:14:31.178Z,93.50
2023-02-23T00:17:00.141Z,94.17
2023-02-23T00:19:27.657Z,92.64
2023-02-23T00:21:56.306Z,93.64
2023-02-23T00:24:27.069Z,92.67
2023-02-23T00:26:54.460Z,93.04
2023-02-23T00:29:24.795Z,93.22
2023-02-23T00:31:52.692Z,92.76
2023-02-23T00:34:21.586Z,92.48
2023-02-23T00:36:55.032Z,91.60
2023-02-23T00:39:26.333Z,92.99
2023-02-23T00:41:55.684Z,92.64
2023-02-23T00:44:23.845Z,92.66
2023-02-23T00:46:52.395Z,90.96
2023-02-23T00:49:21.885Z,92.32
2023-02-23T00:51:49.506Z,92.20
2023-02-23T00:54:17.311Z,93.39
2023-02-23T00:56:45.937Z,92.23
2023-02-23T00:59:14.350Z,92.54
2023-02-23T01:01:42.136Z,92.03
2023-02-23T01:04:11.347Z,90.92
2023-02-23T01:06:40.642Z,91.11
2023-02-23T01:09:14.131Z,92.75
2023-02-23T01:11:42.153Z,92.75
2023-02-23T01:14:10.549Z,92.17
2023-02-23T01:16:38.978Z,92.53
2023-02-23T01:19:07.028Z,92.22
2023-02-23T01:21:39.863Z,92.64
2023-02-23T01:24:10.284Z,94.01
2023-02-23T01:26:40.533Z,95.35
2023-02-23T01:29:16.666Z,96.39
2023-02-23T01:31:47.694Z,95.64
2023-02-23T01:34:19.717Z,94.06
2023-02-23T01:36:47.340Z,94.03
2023-02-23T01:39:17.888Z,95.32
2023-02-23T01:41:45.630Z,95.00
2023-02-23T01:44:13.123Z,94.40
2023-02-23T01:46:43.764Z,94.32
2023-02-23T01:49:20.273Z,93.71
2023-02-23T01:51:55.820Z,92.79
2023-02-23T01:54:26.593Z,92.71
2023-02-23T01:56:58.474Z,93.09
2023-02-23T01:59:34.254Z,92.57
2023-02-23T02:02:05.234Z,91.19
2023-02-23T02:04:46.697Z,90.16
2023-02-23T02:07:23.617Z,91.01
2023-02-23T02:10:22.093Z,93.37
2023-02-23T02:12:52.838Z,93.48
2023-02-23T02:15:22.564Z,92.97
2023-02-23T02:18:23.783Z,93.40
2023-02-23T02:21:04.716Z,93.28
2023-02-23T02:23:59.442Z,92.14
2023-02-23T02:26:45.395Z,90.75
2023-02-23T02:29:31.308Z,92.49
2023-02-23T02:32:14.152Z,93.45
2023-02-23T02:34:42.670Z,92.96
2023-02-23T02:37:36.337Z,94.24
2023-02-23T02:40:21.458Z,95.10
2023-02-23T02:43:00.586Z,93.83
2023-02-23T02:45:43.705Z,94.27
2023-02-23T02:48:49.810Z,94.09
2023-02-23T02:51:26.089Z,93.53
2023-02-23T02:54:07.528Z,93.50
2023-02-23T02:56:40.386Z,92.12
2023-02-23T02:59:33.263Z,91.35
2023-02-23T03:02:19.657Z,93.91
2023-02-23T03:05:05.823Z,94.56
2023-02-23T03:08:11.589Z,93.15
2023-02-23T03:11:14.232Z,91.79
2023-02-23T03:14:06.560Z,91.84
2023-02-23T03:17:07.685Z,91.97
2023-02-23T03:20:13.561Z,94.39
2023-02-23T03:23:09.730Z,93.94
2023-02-23T03:26:13.345Z,92.49
2023-02-23T03:29:14.469Z,91.24
2023-02-23T03:32:07.224Z,91.80
2023-02-23T03:35:18.416Z,92.96
2023-02-23T03:38:12.969Z,92.14
2023-02-23T03:41:01.035Z,93.27
2023-02-23T03:43:51.658Z,92.87
2023-02-23T03:46:38.679Z,92.62
2023-02-23T03:49:27.376Z,93.58
2023-02-23T03:52:18.815Z,92.22
2023-02-23T03:55:10.273Z,92.96
2023-02-23T03:57:57.861Z,91.90
2023-02-23T04:00:48.971Z,92.10
2023-02-23T04:03:36.920Z,92.67
2023-02-23T04:06:26.518Z,94.84
2023-02-23T04:09:14.771Z,94.26
2023-02-23T04:12:20.755Z,95.12
2023-02-23T04:15:01.835Z,94.64
2023-02-23T04:17:29.998Z,95.18
2023-02-23T04:19:57.488Z,95.20
2023-02-23T04:22:25.801Z,94.57
2023-02-23T04:24:53.284Z,94.59
2023-02-23T04:27:20.574Z,96.09
2023-02-23T04:29:47.880Z,97.67
2023-02-23T04:32:18.610Z,97.74
2023-02-23T04:34:46.140Z,98.10
2023-02-23T04:37:13.693Z,98.08
2023-02-23T04:39:42.933Z,97.13
2023-02-23T04:42:10.626Z,97.37
2023-02-23T04:44:38.061Z,97.72
2023-02-23T04:47:05.509Z,97.95
2023-02-23T04:49:32.929Z,98.58
2023-02-23T04:52:00.351Z,99.41
2023-02-23T04:54:27.709Z,99.54
2023-02-23T04:56:55.140Z,99.13
2023-02-23T04:59:22.604Z,97.51
2023-02-23T05:01:49.999Z,95.74
2023-02-23T05:04:17.428Z,94.97
2023-02-23T05:06:44.853Z,95.69
2023-02-23T05:09:12.132Z,95.14
2023-02-23T05:11:39.352Z,93.78
2023-02-23T05:14:06.833Z,94.01
2023-02-23T05:16:34.229Z,94.44
2023-02-23T05:19:01.771Z,93.77
2023-02-23T05:21:29.072Z,92.57
2023-02-23T05:23:57.377Z,92.34
2023-02-23T05:26:24.833Z,93.45
2023-02-23T05:28:52.174Z,96.22
2023-02-23T05:31:20.688Z,94.98
2023-02-23T05:33:48.316Z,94.15
2023-02-23T05:36:17.748Z,94.30
2023-02-23T05:38:46.289Z,94.99
2023-02-23T05:41:16.409Z,94.60
2023-02-23T05:43:43.717Z,93.71
2023-02-23T05:46:16.813Z,94.01
2023-02-23T05:48:44.249Z,94.92
2023-02-23T05:51:13.992Z,93.85
2023-02-23T05:53:41.976Z,92.49
2023-02-23T05:56:13.574Z,92.71
2023-02-23T05:58:40.894Z,92.60
2023-02-23T06:01:08.291Z,92.87
2023-02-23T06:03:35.870Z,93.23
2023-02-23T06:06:03.243Z,92.70
2023-02-23T06:08:30.742Z,91.45
2023-02-23T06:10:58.130Z,91.87
2023-02-23T06:13:26.410Z,92.05
2023-02-23T06:15:53.698Z,92.62
2023-02-23T06:18:22.326Z,91.67
2023-02-23T06:20:49.995Z,90.16
2023-02-23T06:23:18.956Z,88.94
2023-02-23T06:25:47.045Z,88.22
2023-02-23T06:28:15.455Z,88.04
2023-02-23T06:30:43.138Z,88.61
2023-02-23T06:33:10.449Z,89.68
2023-02-23T06:35:38.142Z,89.04
2023-02-23T06:38:06.441Z,90.50
2023-02-23T06:40:33.859Z,89.58
2023-02-23T06:43:03.581Z,87.91
2023-02-23T06:45:31.868Z,88.13
2023-02-23T06:47:59.987Z,90.11
2023-02-23T06:50:27.843Z,90.67
2023-02-23T06:52:57.646Z,90.55
2023-02-23T06:55:25.285Z,89.08
2023-02-23T06:57:53.595Z,90.04
2023-02-23T07:00:21.949Z,90.33
2023-02-23T07:02:49.432Z,92.10
2023-02-23T07:05:16.920Z,91.55
2023-02-23T07:07:45.676Z,90.97
2023-02-23T07:10:13.275Z,91.92
2023-02-23T07:12:40.720Z,91.73
2023-02-23T07:15:08.897Z,90.99
2023-02-23T07:17:36.864Z,90.07
2023-02-23T07:20:05.157Z,89.42
2023-02-23T07:22:34.179Z,88.43
2023-02-23T07:25:01.808Z,86.93
2023-02-23T07:27:29.278Z,86.86
2023-02-23T07:29:56.881Z,86.10
2023-02-23T07:32:24.564Z,84.15
2023-02-23T07:34:54.016Z,85.13
2023-02-23T07:37:22.074Z,85.67
2023-02-23T07:39:49.647Z,89.35
2023-02-23T07:42:18.136Z,89.09
2023-02-23T07:44:45.566Z,90.30
2023-02-23T07:47:13.106Z,90.07
2023-02-23T07:49:40.535Z,89.51
2023-02-23T07:52:08.401Z,90.16
2023-02-23T07:54:35.664Z,88.38
2023-02-23T07:57:03.380Z,89.29
2023-02-23T07:59:32.245Z,88.69
2023-02-23T08:01:59.620Z,89.39
2023-02-23T08:04:26.988Z,89.55
2023-02-23T08:06:55.225Z,88.48
2023-02-23T08:09:22.792Z,87.25
2023-02-23T08:11:50.215Z,88.62
2023-02-23T08:14:17.529Z,86.74
2023-02-23T08:16:45.752Z,86.34
2023-02-23T08:19:13.192Z,85.88
2023-02-23T08:21:40.674Z,86.50
2023-02-23T08:24:08.108Z,85.55
2023-02-23T08:26:38.121Z,85.41
2023-02-23T08:29:05.390Z,86.10
2023-02-23T08:31:32.786Z,86.26
2023-02-23T08:34:00.299Z,86.69
2023-02-23T08:36:27.706Z,88.49
2023-02-23T08:38:55.367Z,78.36
2023-02-23T08:41:23.083Z,78.28
2023-02-23T08:43:50.355Z,79.27
2023-02-23T08:46:20.388Z,80.17
2023-02-23T08:48:47.720Z,79.49
2023-02-23T08:51:15.689Z,80.94
2023-02-23T08:53:43.097Z,80.57
2023-02-23T08:56:12.875Z,80.02
2023-02-23T08:58:40.489Z,80.36
2023-02-23T09:01:07.904Z,80.48
2023-02-23T09:03:38.197Z,79.81
2023-02-23T09:06:09.815Z,78.94
2023-02-23T09:08:38.304Z,79.40
2023-02-23T09:11:05.992Z,80.32
2023-02-23T09:13:33.731Z,80.24
2023-02-23T09:16:01.285Z,80.76
2023-02-23T09:18:29.500Z,80.37
2023-02-23T09:20:57.225Z,79.71
2023-02-23T09:23:28.293Z,80.09
2023-02-23T09:25:55.634Z,81.00
2023-02-23T09:28:23.066Z,80.52
2023-02-23T09:30:50.324Z,81.01
2023-02-23T09:33:18.298Z,80.07
2023-02-23T09:35:45.647Z,80.75
2023-02-23T09:38:12.973Z,81.71
2023-02-23T09:40:52.753Z,81.61
2023-02-23T09:43:24.246Z,83.00
2023-02-23T09:46:16.254Z,84.64
2023-02-23T09:48:44.221Z,85.37
2023-02-23T09:51:17.348Z,85.37
2023-02-23T09:53:48.949Z,84.08
2023-02-23T09:56:39.264Z,84.21
2023-02-23T09:59:15.601Z,84.28
2023-02-23T10:01:49.230Z,83.51
2023-02-23T10:04:23.819Z,85.28
2023-02-23T10:06:59.983Z,85.49
2023-02-23T10:09:52.712Z,87.16
2023-02-23T10:12:30.500Z,86.02
2023-02-23T10:15:06.576Z,85.91
2023-02-23T10:18:06.311Z,87.43
2023-02-23T10:20:57.676Z,86.08
2023-02-23T10:23:34.092Z,86.13
2023-02-23T10:26:02.928Z,84.32
2023-02-23T10:28:36.762Z,83.79
2023-02-23T10:31:17.096Z,83.69
2023-02-23T10:33:44.797Z,83.51
2023-02-23T10:36:19.676Z,81.23
2023-02-23T10:38:47.292Z,79.28
2023-02-23T10:41:15.145Z,78.49
2023-02-23T10:43:42.746Z,78.79
2023-02-23T10:46:23.487Z,78.54
2023-02-23T10:48:51.375Z,78.20
2023-02-23T10:51:23.476Z,80.65
2023-02-23T10:53:53.044Z,79.33
2023-02-23T10:56:21.414Z,78.28
2023-02-23T10:59:05.633Z,78.81
2023-02-23T11:02:00.302Z,78.96
2023-02-23T11:04:31.271Z,78.63
2023-02-23T11:07:16.430Z,77.95
2023-02-23T11:09:48.154Z,77.69
2023-02-23T11:12:22.831Z,77.67
2023-02-23T11:14:52.290Z,78.02
2023-02-23T11:17:24.297Z,77.60
2023-02-23T11:19:51.879Z,77.06
2023-02-23T11:22:27.120Z,77.41
2023-02-23T11:24:55.575Z,77.07
2023-02-23T11:27:27.021Z,76.43
2023-02-23T11:29:59.285Z,77.37
2023-02-23T11:32:30.844Z,76.17
2023-02-23T11:35:31.230Z,78.03
2023-02-23T11:37:59.011Z,78.52
2023-02-23T11:40:26.234Z,76.92
2023-02-23T11:43:01.240Z,76.17
2023-02-23T11:45:34.237Z,74.84
2023-02-23T11:48:02.266Z,76.02
2023-02-23T11:50:32.590Z,76.46
2023-02-23T11:53:17.212Z,76.78
2023-02-23T11:55:55.254Z,77.71
2023-02-23T11:58:27.177Z,75.99
2023-02-23T12:01:03.565Z,75.55
2023-02-23T12:03:33.327Z,76.48
2023-02-23T12:06:02.377Z,76.00
2023-02-23T12:08:35.982Z,76.10
2023-02-23T12:11:07.298Z,74.83
2023-02-23T12:13:50.848Z,73.76
2023-02-23T12:16:24.781Z,73.91
2023-02-23T12:19:04.990Z,73.93
2023-02-23T12:21:34.827Z,74.19
2023-02-23T12:24:08.157Z,73.83
2023-02-23T12:26:49.334Z,73.21
2023-02-23T12:29:33.643Z,73.83
2023-02-23T12:32:03.339Z,74.73
2023-02-23T12:34:36.468Z,74.97
2023-02-23T12:37:29.294Z,74.20
2023-02-23T12:40:02.308Z,74.93
2023-02-23T12:42:45.742Z,73.80
2023-02-23T12:45:43.358Z,73.10
2023-02-23T12:48:29.220Z,74.16
2023-02-23T12:51:07.210Z,74.39
2023-02-23T12:53:34.582Z,73.78
2023-02-23T12:56:27.467Z,75.91
2023-02-23T12:59:14.439Z,75.38
2023-02-23T13:02:00.809Z,74.42
2023-02-23T13:05:24.549Z,73.34
2023-02-23T13:08:11.584Z,73.24
2023-02-23T13:10:55.639Z,74.64
2023-02-23T13:13:31.587Z,74.37
2023-02-23T13:16:34.916Z,73.06
2023-02-23T13:19:25.278Z,72.35
2023-02-23T13:22:21.934Z,74.28
2023-02-23T13:24:49.867Z,76.51
2023-02-23T13:27:34.047Z,76.03
2023-02-23T13:30:02.326Z,75.74
2023-02-23T13:32:32.612Z,76.14
2023-02-23T13:35:14.524Z,76.26
2023-02-23T13:37:51.393Z,76.70
2023-02-23T13:40:31.143Z,76.18
2023-02-23T13:43:23.686Z,76.22
2023-02-23T13:46:14.633Z,76.55
2023-02-23T13:49:00.531Z,75.67
2023-02-23T13:51:43.799Z,76.17
2023-02-23T13:54:15.092Z,76.15
2023-02-23T13:56:47.068Z,77.91
2023-02-23T13:59:29.692Z,76.65
2023-02-23T14:01:58.011Z,75.82
2023-02-23T14:04:28.214Z,76.08
2023-02-23T14:07:01.875Z,75.63
2023-02-23T14:09:36.788Z,75.16
2023-02-23T14:12:38.970Z,75.40
2023-02-23T14:15:25.439Z,74.57
2023-02-23T14:18:15.470Z,74.16
2023-02-23T14:21:15.554Z,75.18
2023-02-23T14:24:03.150Z,76.30
2023-02-23T14:26:30.376Z,76.00
2023-02-23T14:29:20.126Z,76.37
2023-02-23T14:32:12.605Z,76.10
2023-02-23T14:35:00.693Z,74.92
2023-02-23T14:37:40.956Z,75.96
2023-02-23T14:40:15.740Z,76.72
2023-02-23T14:42:47.531Z,77.27
2023-02-23T14:45:29.240Z,78.02
2023-02-23T14:48:00.012Z,77.22
2023-02-23T14:50:30.787Z,76.71
2023-02-23T14:52:58.544Z,77.48
2023-02-23T14:55:33.055Z,77.46
2023-02-23T14:58:02.133Z,75.95
2023-02-23T15:00:33.106Z,77.09
2023-02-23T15:03:03.727Z,76.33
2023-02-23T15:05:37.355Z,76.13
2023-02-23T15:08:06.836Z,75.26
2023-02-23T15:10:39.177Z,74.38
2023-02-23T15:13:11.849Z,76.41
2023-02-23T15:15:45.394Z,76.52
2023-02-23T15:18:32.001Z,75.83
2023-02-23T15:20:59.513Z,76.35
2023-02-23T15:23:27.356Z,77.13
2023-02-23T15:25:54.965Z,76.45
2023-02-23T15:28:28.112Z,76.21
2023-02-23T15:31:02.049Z,75.88
2023-02-23T15:33:30.380Z,77.03
2023-02-23T15:36:06.905Z,76.38
2023-02-23T15:38:43.876Z,77.21
2023-02-23T15:41:39.623Z,76.69
2023-02-23T15:44:13.415Z,76.65
2023-02-23T15:46:42.109Z,75.25
2023-02-23T15:49:14.439Z,75.40
2023-02-23T15:51:50.288Z,75.33
2023-02-23T15:54:24.812Z,75.14
2023-02-23T15:56:57.238Z,74.47
2023-02-23T15:59:38.035Z,76.15
2023-02-23T16:02:16.681Z,76.30
2023-02-23T16:04:49.018Z,75.66
2023-02-23T16:07:21.986Z,75.66
2023-02-23T16:09:55.791Z,75.64
2023-02-23T16:12:32.646Z,75.84
2023-02-23T16:15:02.313Z,76.43
2023-02-23T16:17:53.701Z,75.85
2023-02-23T16:20:29.322Z,75.57
2023-02-23T16:22:58.127Z,76.57
2023-02-23T16:25:27.255Z,77.20
2023-02-23T16:28:01.335Z,77.12
2023-02-23T16:30:32.145Z,76.98
2023-02-23T16:33:24.253Z,76.32
2023-02-23T16:36:10.593Z,76.41
2023-02-23T16:38:41.161Z,76.12
2023-02-23T16:41:22.381Z,75.86
2023-02-23T16:43:52.003Z,76.09
2023-02-23T16:46:21.134Z,76.79
2023-02-23T16:48:48.940Z,77.11
2023-02-23T16:51:19.064Z,77.04
2023-02-23T16:53:46.632Z,77.99
2023-02-23T16:56:20.224Z,77.22
2023-02-23T16:58:57.173Z,76.20
2023-02-23T17:01:24.802Z,75.27
2023-02-23T17:03:54.085Z,75.59
2023-02-23T17:06:22.751Z,74.51
2023-02-23T17:08:58.093Z,74.26
2023-02-23T17:11:26.640Z,74.45
2023-02-23T17:13:54.078Z,74.09
2023-02-23T17:16:21.825Z,73.83
2023-02-23T17:18:49.339Z,74.42
2023-02-23T17:21:23.003Z,75.08
2023-02-23T17:23:51.646Z,75.15
2023-02-23T17:26:23.821Z,74.48
2023-02-23T17:28:51.860Z,74.74
2023-02-23T17:31:20.164Z,75.14
2023-02-23T17:33:48.300Z,75.74
2023-02-23T17:36:17.632Z,75.43
2023-02-23T17:38:45.153Z,75.22
2023-02-23T17:41:16.570Z,74.69
2023-02-23T17:43:44.096Z,74.51
2023-02-23T17:46:12.974Z,74.36
2023-02-23T17:48:44.486Z,74.60
2023-02-23T17:51:13.197Z,74.80
2023-02-23T17:53:40.823Z,75.29
2023-02-23T17:56:09.143Z,75.69
2023-02-23T17:58:37.459Z,75.75
2023-02-23T18:01:07.078Z,76.05
2023-02-23T18:03:36.385Z,76.20
2023-02-23T18:06:09.380Z,76.39
2023-02-23T18:08:37.907Z,76.83
2023-02-23T18:11:05.680Z,75.92
2023-02-23T18:13:34.313Z,75.81
2023-02-23T18:16:06.248Z,75.79
2023-02-23T18:18:34.161Z,75.56
2023-02-23T18:21:02.814Z,75.41
2023-02-23T18:23:37.009Z,76.28
2023-02-23T18:26:07.288Z,76.44
2023-02-23T18:28:35.307Z,76.03
2023-02-23T18:31:02.959Z,78.01
2023-02-23T18:33:31.536Z,78.57
2023-02-23T18:35:59.073Z,78.53
2023-02-23T18:38:26.596Z,78.77
2023-02-23T18:40:53.904Z,79.15
2023-02-23T18:43:21.366Z,79.21
2023-02-23T18:45:48.825Z,79.71
2023-02-23T18:48:16.394Z,79.83
2023-02-23T18:50:44.035Z,79.59
2023-02-23T18:53:11.526Z,79.80
2023-02-23T18:55:38.789Z,79.96
2023-02-23T18:58:07.824Z,80.06
2023-02-23T19:00:40.202Z,79.83
2023-02-23T19:03:07.739Z,79.95
2023-02-23T19:05:37.681Z,79.68
2023-02-23T19:08:09.558Z,79.61
2023-02-23T19:10:37.076Z,79.73
2023-02-23T19:13:08.960Z,79.81
2023-02-23T19:15:36.380Z,79.36
2023-02-23T19:18:04.195Z,79.09
2023-02-23T19:20:35.912Z,78.33
2023-02-23T19:23:03.471Z,78.08
2023-02-23T19:25:31.925Z,77.24
2023-02-23T19:28:00.049Z,76.16
2023-02-23T19:30:27.501Z,74.89
2023-02-23T19:32:54.874Z,74.06
2023-02-23T19:35:22.419Z,74.00
2023-02-23T19:37:51.823Z,73.61
2023-02-23T19:40:22.868Z,73.21
2023-02-23T19:42:51.215Z,72.83
2023-02-23T19:45:18.742Z,72.36
2023-02-23T19:47:46.352Z,71.34
2023-02-23T19:50:16.937Z,71.33
2023-02-23T19:52:45.295Z,71.46
2023-02-23T19:55:13.416Z,72.06
2023-02-23T19:57:41.213Z,72.15
2023-02-23T20:00:11.629Z,71.57
2023-02-23T20:02:42.778Z,71.76
2023-02-23T20:05:15.140Z,71.75
2023-02-23T20:07:43.354Z,72.55
2023-02-23T20:10:16.196Z,72.04
2023-02-23T20:12:44.604Z,72.11
2023-02-23T20:15:14.859Z,72.47
2023-02-23T20:17:42.592Z,72.74
2023-02-23T20:20:11.336Z,73.10
2023-02-23T20:22:41.407Z,73.80
2023-02-23T20:25:12.643Z,73.48
2023-02-23T20:27:39.860Z,74.01
2023-02-23T20:30:07.811Z,73.59
2023-02-23T20:32:35.431Z,73.80
2023-02-23T20:35:03.071Z,73.46
2023-02-23T20:37:31.388Z,73.61
2023-02-23T20:39:58.922Z,73.61
2023-02-23T20:42:28.393Z,74.12
2023-02-23T20:44:56.054Z,73.89
2023-02-23T20:47:24.213Z,73.17
2023-02-23T20:49:51.563Z,73.48
2023-02-23T20:52:18.973Z,74.06
2023-02-23T20:54:46.312Z,74.17
2023-02-23T20:57:13.632Z,75.03
2023-02-23T20:59:43.301Z,75.05
2023-02-23T21:02:13.973Z,75.93
2023-02-23T21:04:44.275Z,76.18
2023-02-23T21:07:13.538Z,76.19
2023-02-23T21:09:41.030Z,76.58
2023-02-23T21:12:12.671Z,76.69
2023-02-23T21:14:40.132Z,76.98
2023-02-23T21:20:14.569Z,77.66
2023-02-23T21:22:42.042Z,77.90
2023-02-23T21:25:10.953Z,77.91
2023-02-23T21:27:38.669Z,77.49
2023-02-23T21:30:08.205Z,77.63
2023-02-23T21:32:41.321Z,77.15
2023-02-23T21:35:10.944Z,78.44
2023-02-23T21:37:39.388Z,78.58
2023-02-23T21:40:12.665Z,78.48
2023-02-23T21:42:41.714Z,79.14
2023-02-23T21:45:12.503Z,78.33
2023-02-23T21:47:41.748Z,78.85
2023-02-23T21:50:13.581Z,79.33
2023-02-23T21:52:43.690Z,80.23
2023-02-23T21:55:21.248Z,80.34
2023-02-23T21:57:49.339Z,79.81
2023-02-23T22:00:16.810Z,80.26
2023-02-23T22:02:46.736Z,80.93
2023-02-23T22:05:15.941Z,81.10
2023-02-23T22:07:52.068Z,80.88
2023-02-23T22:10:21.834Z,81.12
2023-02-23T22:12:56.702Z,81.19
2023-02-23T22:15:29.886Z,80.96
2023-02-23T22:17:57.336Z,81.12
2023-02-23T22:20:26.202Z,80.82
2023-02-23T22:22:53.684Z,81.36
2023-02-23T22:25:21.263Z,80.96
2023-02-23T22:27:48.721Z,81.85
2023-02-23T22:30:16.332Z,77.19
2023-02-23T22:32:44.453Z,76.78
2023-02-23T22:35:12.107Z,77.38
2023-02-23T22:37:40.127Z,78.34
2023-02-23T22:40:12.959Z,77.02
2023-02-23T22:42:43.277Z,79.61
2023-02-23T22:45:11.514Z,79.10
2023-02-23T22:47:39.157Z,78.98
2023-02-23T22:50:07.110Z,79.31
2023-02-23T22:52:34.788Z,79.59
2023-02-23T22:55:03.959Z,79.41
2023-02-23T22:57:31.321Z,79.45
2023-02-23T23:00:07.356Z,79.23
2023-02-23T23:02:36.387Z,79.46
2023-02-23T23:05:04.069Z,79.08
2023-02-23T23:07:31.817Z,78.87
2023-02-23T23:10:03.758Z,78.75
2023-02-23T23:12:34.401Z,78.29
2023-02-23T23:15:05.104Z,77.87
2023-02-23T23:17:32.918Z,77.57
2023-02-23T23:20:00.551Z,77.37
2023-02-23T23:22:28.142Z,77.19
2023-02-23T23:24:56.981Z,77.32
2023-02-23T23:27:24.940Z,77.99
2023-02-23T23:29:52.443Z,77.64
2023-02-23T23:32:27.485Z,77.69
2023-02-23T23:34:57.771Z,77.30
2023-02-23T23:37:29.169Z,77.79
2023-02-23T23:40:00.150Z,77.89
2023-02-23T23:42:27.696Z,77.51
2023-02-23T23:44:56.943Z,77.47
2023-02-23T23:47:24.719Z,78.23
2023-02-23T23:49:53.785Z,78.16
2023-02-23T23:52:21.213Z,77.79
2023-02-23T23:54:49.000Z,77.58
2023-02-23T23:57:17.397Z,77.55
2023-02-23T23:59:46.355Z,77.71
